sensor_id;sensor_type;location;lat;lon;timestamp;pressure;altitude;pressure_sealevel;temperature;humidity
48041;BME280;33815;48.386;11.738;2024-02-23T00:01:20;94561.72;;;6.79;100.00
48041;BME280;33815;48.386;11.738;2024-02-23T00:03:45;94566.47;;;6.75;100.00
48041;BME280;33815;48.386;11.738;2024-02-23T00:06:10;94577.00;;;6.74;100.00
48041;BME280;33815;48.386;11.738;2024-02-23T00:08:36;94597.28;;;6.85;100.00
48041;BME280;33815;48.386;11.738;2024-02-23T00:11:02;94597.00;;;6.80;100.00
48041;BME280;33815;48.386;11.738;2024-02-23T00:13:28;94584.19;;;6.63;100.00
48041;BME280;33815;48.386;11.738;2024-02-23T00:15:53;94578.06;;;6.64;100.00
48041;BME280;33815;48.386;11.738;2024-02-23T00:18:18;94583.41;;;6.63;100.00
48041;BME280;33815;48.386;11.738;2024-02-23T00:20:46;94587.56;;;6.49;100.00
48041;BME280;33815;48.386;11.738;2024-02-23T00:23:11;94587.69;;;6.32;100.00
48041;BME280;33815;48.386;11.738;2024-02-23T00:25:37;94581.88;;;6.30;100.00
48041;BME280;33815;48.386;11.738;2024-02-23T00:28:02;94600.28;;;6.36;100.00
48041;BME280;33815;48.386;11.738;2024-02-23T00:30:27;94604.69;;;6.27;100.00
48041;BME280;33815;48.386;11.738;2024-02-23T00:32:53;94605.88;;;6.24;100.00
48041;BME280;33815;48.386;11.738;2024-02-23T00:35:18;94620.69;;;6.30;100.00
48041;BME280;33815;48.386;11.738;2024-02-23T00:37:44;94613.94;;;6.21;100.00
48041;BME280;33815;48.386;11.738;2024-02-23T00:40:10;94615.97;;;6.11;100.00
48041;BME280;33815;48.386;11.738;2024-02-23T00:42:35;94615.22;;;6.25;100.00
48041;BME280;33815;48.386;11.738;2024-02-23T00:45:00;94620.00;;;6.13;100.00
48041;BME280;33815;48.386;11.738;2024-02-23T00:47:26;94631.31;;;6.12;100.00
48041;BME280;33815;48.386;11.738;2024-02-23T00:49:52;94649.41;;;6.12;100.00
48041;BME280;33815;48.386;11.738;2024-02-23T00:52:17;94648.97;;;6.09;100.00
48041;BME280;33815;48.386;11.738;2024-02-23T00:54:42;94657.84;;;6.06;100.00
48041;BME280;33815;48.386;11.738;2024-02-23T00:57:08;94638.81;;;5.99;100.00
48041;BME280;33815;48.386;11.738;2024-02-23T00:59:33;94637.47;;;6.03;100.00
48041;BME280;33815;48.386;11.738;2024-02-23T01:01:58;94633.31;;;5.94;100.00
48041;BME280;33815;48.386;11.738;2024-02-23T01:04:23;94660.63;;;6.05;100.00
48041;BME280;33815;48.386;11.738;2024-02-23T01:06:49;94656.72;;;6.09;100.00
48041;BME280;33815;48.386;11.738;2024-02-23T01:09:14;94647.03;;;6.03;100.00
48041;BME280;33815;48.386;11.738;2024-02-23T01:11:42;94662.34;;;6.12;100.00
48041;BME280;33815;48.386;11.738;2024-02-23T01:14:07;94662.00;;;6.15;100.00
48041;BME280;33815;48.386;11.738;2024-02-23T01:16:32;94651.41;;;5.94;100.00
48041;BME280;33815;48.386;11.738;2024-02-23T01:18:57;94655.31;;;5.98;100.00
48041;BME280;33815;48.386;11.738;2024-02-23T01:21:23;94645.09;;;5.96;100.00
48041;BME280;33815;48.386;11.738;2024-02-23T01:23:48;94657.38;;;6.03;100.00
48041;BME280;33815;48.386;11.738;2024-02-23T01:26:13;94662.50;;;6.11;100.00
48041;BME280;33815;48.386;11.738;2024-02-23T01:28:39;94662.72;;;6.01;100.00
48041;BME280;33815;48.386;11.738;2024-02-23T01:31:04;94655.81;;;5.85;100.00
48041;BME280;33815;48.386;11.738;2024-02-23T01:33:32;94669.03;;;5.98;100.00
48041;BME280;33815;48.386;11.738;2024-02-23T01:35:58;94668.75;;;5.85;100.00
48041;BME280;33815;48.386;11.738;2024-02-23T01:38:23;94672.47;;;5.82;100.00
48041;BME280;33815;48.386;11.738;2024-02-23T01:40:50;94685.38;;;5.99;100.00
48041;BME280;33815;48.386;11.738;2024-02-23T01:43:15;94681.84;;;5.83;100.00
48041;BME280;33815;48.386;11.738;2024-02-23T01:45:40;94681.47;;;5.95;100.00
48041;BME280;33815;48.386;11.738;2024-02-23T01:48:06;94679.88;;;5.86;100.00
48041;BME280;33815;48.386;11.738;2024-02-23T01:50:32;94694.59;;;5.93;100.00
48041;BME280;33815;48.386;11.738;2024-02-23T01:53:00;94676.38;;;5.78;100.00
48041;BME280;33815;48.386;11.738;2024-02-23T01:55:26;94693.16;;;5.82;100.00
48041;BME280;33815;48.386;11.738;2024-02-23T01:57:52;94691.53;;;5.81;100.00
48041;BME280;33815;48.386;11.738;2024-02-23T02:00:18;94700.09;;;5.82;100.00
48041;BME280;33815;48.386;11.738;2024-02-23T02:02:44;94694.91;;;5.82;100.00
48041;BME280;33815;48.386;11.738;2024-02-23T02:05:10;94701.91;;;5.73;100.00
48041;BME280;33815;48.386;11.738;2024-02-23T02:07:35;94699.34;;;5.65;100.00
48041;BME280;33815;48.386;11.738;2024-02-23T02:10:02;94700.47;;;5.62;100.00
48041;BME280;33815;48.386;11.738;2024-02-23T02:12:29;94699.16;;;5.66;100.00
48041;BME280;33815;48.386;11.738;2024-02-23T02:14:54;94709.81;;;5.72;100.00
48041;BME280;33815;48.386;11.738;2024-02-23T02:17:20;94698.72;;;5.63;100.00
48041;BME280;33815;48.386;11.738;2024-02-23T02:19:49;94687.53;;;5.62;100.00
48041;BME280;33815;48.386;11.738;2024-02-23T02:22:14;94711.81;;;5.61;100.00
48041;BME280;33815;48.386;11.738;2024-02-23T02:24:39;94724.38;;;5.73;100.00
48041;BME280;33815;48.386;11.738;2024-02-23T02:27:07;94723.41;;;5.74;100.00
48041;BME280;33815;48.386;11.738;2024-02-23T02:29:33;94713.91;;;5.58;100.00
48041;BME280;33815;48.386;11.738;2024-02-23T02:31:58;94724.88;;;5.68;100.00
48041;BME280;33815;48.386;11.738;2024-02-23T02:34:23;94736.34;;;5.65;100.00
48041;BME280;33815;48.386;11.738;2024-02-23T02:36:48;94737.66;;;5.61;100.00
48041;BME280;33815;48.386;11.738;2024-02-23T02:39:14;94744.13;;;5.57;100.00
48041;BME280;33815;48.386;11.738;2024-02-23T02:41:39;94744.78;;;5.43;100.00
48041;BME280;33815;48.386;11.738;2024-02-23T02:44:04;94759.78;;;5.47;100.00
48041;BME280;33815;48.386;11.738;2024-02-23T02:46:30;94754.78;;;5.29;100.00
48041;BME280;33815;48.386;11.738;2024-02-23T02:48:55;94764.78;;;5.32;100.00
48041;BME280;33815;48.386;11.738;2024-02-23T02:51:20;94773.53;;;5.23;100.00
48041;BME280;33815;48.386;11.738;2024-02-23T02:53:46;94772.41;;;5.09;100.00
48041;BME280;33815;48.386;11.738;2024-02-23T02:56:11;94776.09;;;4.98;100.00
48041;BME280;33815;48.386;11.738;2024-02-23T02:58:36;94789.13;;;4.80;100.00
48041;BME280;33815;48.386;11.738;2024-02-23T03:01:01;94792.78;;;4.53;100.00
48041;BME280;33815;48.386;11.738;2024-02-23T03:03:27;94785.88;;;4.11;100.00
48041;BME280;33815;48.386;11.738;2024-02-23T03:05:52;94809.31;;;4.00;100.00
48041;BME280;33815;48.386;11.738;2024-02-23T03:08:17;94788.31;;;3.86;100.00
48041;BME280;33815;48.386;11.738;2024-02-23T03:10:42;94785.94;;;3.67;100.00
48041;BME280;33815;48.386;11.738;2024-02-23T03:13:08;94783.94;;;3.52;100.00
48041;BME280;33815;48.386;11.738;2024-02-23T03:15:33;94794.75;;;3.38;100.00
48041;BME280;33815;48.386;11.738;2024-02-23T03:17:58;94815.13;;;3.49;100.00
48041;BME280;33815;48.386;11.738;2024-02-23T03:20:26;94826.19;;;3.41;100.00
48041;BME280;33815;48.386;11.738;2024-02-23T03:22:51;94823.91;;;3.38;100.00
48041;BME280;33815;48.386;11.738;2024-02-23T03:25:16;94810.75;;;3.23;100.00
48041;BME280;33815;48.386;11.738;2024-02-23T03:27:41;94812.38;;;3.24;100.00
48041;BME280;33815;48.386;11.738;2024-02-23T03:30:07;94801.31;;;3.14;100.00
48041;BME280;33815;48.386;11.738;2024-02-23T03:32:35;94812.38;;;3.24;100.00
48041;BME280;33815;48.386;11.738;2024-02-23T03:35:05;94821.84;;;3.24;100.00
48041;BME280;33815;48.386;11.738;2024-02-23T03:37:31;94815.97;;;3.14;100.00
48041;BME280;33815;48.386;11.738;2024-02-23T03:39:56;94829.66;;;3.14;100.00
48041;BME280;33815;48.386;11.738;2024-02-23T03:42:21;94826.13;;;3.15;100.00
48041;BME280;33815;48.386;11.738;2024-02-23T03:44:47;94822.66;;;3.24;100.00
48041;BME280;33815;48.386;11.738;2024-02-23T03:47:12;94819.22;;;3.16;100.00
48041;BME280;33815;48.386;11.738;2024-02-23T03:49:38;94813.03;;;3.08;100.00
48041;BME280;33815;48.386;11.738;2024-02-23T03:52:04;94802.16;;;2.97;100.00
48041;BME280;33815;48.386;11.738;2024-02-23T03:54:29;94801.34;;;2.96;100.00
48041;BME280;33815;48.386;11.738;2024-02-23T03:56:56;94794.50;;;2.87;100.00
48041;BME280;33815;48.386;11.738;2024-02-23T03:59:21;94818.16;;;3.08;100.00
48041;BME280;33815;48.386;11.738;2024-02-23T04:01:46;94809.66;;;2.90;100.00
48041;BME280;33815;48.386;11.738;2024-02-23T04:04:12;94815.31;;;2.94;100.00
48041;BME280;33815;48.386;11.738;2024-02-23T04:06:37;94813.06;;;2.90;100.00
48041;BME280;33815;48.386;11.738;2024-02-23T04:09:02;94820.75;;;2.90;100.00
48041;BME280;33815;48.386;11.738;2024-02-23T04:11:31;94827.50;;;2.91;100.00
48041;BME280;33815;48.386;11.738;2024-02-23T04:13:57;94810.91;;;2.86;100.00
48041;BME280;33815;48.386;11.738;2024-02-23T04:16:23;94805.53;;;2.79;100.00
48041;BME280;33815;48.386;11.738;2024-02-23T04:18:50;94813.13;;;2.81;100.00
48041;BME280;33815;48.386;11.738;2024-02-23T04:21:15;94794.22;;;2.90;100.00
48041;BME280;33815;48.386;11.738;2024-02-23T04:23:40;94804.28;;;2.83;100.00
48041;BME280;33815;48.386;11.738;2024-02-23T04:26:05;94791.28;;;2.85;100.00
48041;BME280;33815;48.386;11.738;2024-02-23T04:28:31;94816.81;;;2.96;100.00
48041;BME280;33815;48.386;11.738;2024-02-23T04:30:58;94808.16;;;2.87;100.00
48041;BME280;33815;48.386;11.738;2024-02-23T04:33:24;94809.88;;;2.97;100.00
48041;BME280;33815;48.386;11.738;2024-02-23T04:35:49;94815.47;;;3.10;100.00
48041;BME280;33815;48.386;11.738;2024-02-23T04:38:14;94776.88;;;2.74;100.00
48041;BME280;33815;48.386;11.738;2024-02-23T04:40:39;94810.75;;;3.05;100.00
48041;BME280;33815;48.386;11.738;2024-02-23T04:43:05;94801.78;;;2.91;100.00
48041;BME280;33815;48.386;11.738;2024-02-23T04:45:30;94796.56;;;2.83;100.00
48041;BME280;33815;48.386;11.738;2024-02-23T04:47:55;94812.38;;;2.88;100.00
48041;BME280;33815;48.386;11.738;2024-02-23T04:50:21;94804.66;;;2.88;100.00
48041;BME280;33815;48.386;11.738;2024-02-23T04:52:46;94812.91;;;2.92;100.00
48041;BME280;33815;48.386;11.738;2024-02-23T04:55:11;94812.06;;;2.91;100.00
48041;BME280;33815;48.386;11.738;2024-02-23T04:57:37;94801.78;;;2.91;100.00
48041;BME280;33815;48.386;11.738;2024-02-23T05:00:03;94792.38;;;2.82;100.00
48041;BME280;33815;48.386;11.738;2024-02-23T05:02:29;94811.13;;;2.92;100.00
48041;BME280;33815;48.386;11.738;2024-02-23T05:05:00;94807.81;;;2.82;100.00
48041;BME280;33815;48.386;11.738;2024-02-23T05:07:25;94816.63;;;2.80;100.00
48041;BME280;33815;48.386;11.738;2024-02-23T05:09:50;94803.03;;;2.87;100.00
48041;BME280;33815;48.386;11.738;2024-02-23T05:12:15;94804.28;;;2.83;100.00
48041;BME280;33815;48.386;11.738;2024-02-23T05:14:41;94800.53;;;2.78;100.00
48041;BME280;33815;48.386;11.738;2024-02-23T05:17:06;94805.25;;;2.82;100.00
48041;BME280;33815;48.386;11.738;2024-02-23T05:19:31;94804.28;;;2.83;100.00
48041;BME280;33815;48.386;11.738;2024-02-23T05:21:56;94802.16;;;2.79;100.00
48041;BME280;33815;48.386;11.738;2024-02-23T05:24:22;94802.16;;;2.79;100.00
48041;BME280;33815;48.386;11.738;2024-02-23T05:26:47;94803.16;;;2.86;100.00
48041;BME280;33815;48.386;11.738;2024-02-23T05:29:12;94818.91;;;2.83;100.00
48041;BME280;33815;48.386;11.738;2024-02-23T05:31:44;94813.75;;;2.83;100.00
48041;BME280;33815;48.386;11.738;2024-02-23T05:34:10;94817.44;;;2.80;100.00
48041;BME280;33815;48.386;11.738;2024-02-23T05:36:36;94840.03;;;3.04;100.00
48041;BME280;33815;48.386;11.738;2024-02-23T05:39:01;94831.63;;;2.84;100.00
48041;BME280;33815;48.386;11.738;2024-02-23T05:41:26;94828.09;;;2.85;100.00
48041;BME280;33815;48.386;11.738;2024-02-23T05:43:51;94818.69;;;2.76;100.00
48041;BME280;33815;48.386;11.738;2024-02-23T05:46:17;94821.88;;;2.88;100.00
48041;BME280;33815;48.386;11.738;2024-02-23T05:48:43;94845.88;;;2.79;100.00
48041;BME280;33815;48.386;11.738;2024-02-23T05:51:08;94849.03;;;2.72;100.00
48041;BME280;33815;48.386;11.738;2024-02-23T05:53:33;94852.50;;;2.81;100.00
48041;BME280;33815;48.386;11.738;2024-02-23T05:55:59;94851.19;;;2.77;100.00
48041;BME280;33815;48.386;11.738;2024-02-23T05:58:24;94864.72;;;2.79;100.00
48041;BME280;33815;48.386;11.738;2024-02-23T06:00:50;94849.47;;;2.68;100.00
48041;BME280;33815;48.386;11.738;2024-02-23T06:03:17;94867.94;;;2.81;100.00
48041;BME280;33815;48.386;11.738;2024-02-23T06:05:43;94865.53;;;2.80;100.00
48041;BME280;33815;48.386;11.738;2024-02-23T06:08:08;94858.25;;;2.75;100.00
48041;BME280;33815;48.386;11.738;2024-02-23T06:10:34;94864.84;;;2.78;100.00
48041;BME280;33815;48.386;11.738;2024-02-23T06:12:59;94875.38;;;2.84;100.00
48041;BME280;33815;48.386;11.738;2024-02-23T06:15:24;94881.59;;;2.82;100.00
48041;BME280;33815;48.386;11.738;2024-02-23T06:17:49;94879.56;;;2.85;100.00
48041;BME280;33815;48.386;11.738;2024-02-23T06:20:15;94861.22;;;2.70;100.00
48041;BME280;33815;48.386;11.738;2024-02-23T06:22:40;94870.13;;;2.76;100.00
48041;BME280;33815;48.386;11.738;2024-02-23T06:25:05;94872.56;;;2.78;100.00
48041;BME280;33815;48.386;11.738;2024-02-23T06:27:31;94874.94;;;2.89;100.00
48041;BME280;33815;48.386;11.738;2024-02-23T06:29:56;94889.56;;;2.88;100.00
48041;BME280;33815;48.386;11.738;2024-02-23T06:32:22;94899.56;;;2.91;100.00
48041;BME280;33815;48.386;11.738;2024-02-23T06:34:47;94893.91;;;2.88;100.00
48041;BME280;33815;48.386;11.738;2024-02-23T06:37:12;94908.38;;;2.89;100.00
48041;BME280;33815;48.386;11.738;2024-02-23T06:39:38;94899.72;;;2.90;100.00
48041;BME280;33815;48.386;11.738;2024-02-23T06:42:04;94907.66;;;2.97;100.00
48041;BME280;33815;48.386;11.738;2024-02-23T06:44:30;94914.16;;;3.01;100.00
48041;BME280;33815;48.386;11.738;2024-02-23T06:46:55;94915.09;;;3.00;100.00
48041;BME280;33815;48.386;11.738;2024-02-23T06:49:20;94914.28;;;2.99;100.00
48041;BME280;33815;48.386;11.738;2024-02-23T06:51:46;94914.00;;;3.02;100.00
48041;BME280;33815;48.386;11.738;2024-02-23T06:54:11;94895.75;;;2.96;100.00
48041;BME280;33815;48.386;11.738;2024-02-23T06:56:36;94904.50;;;3.03;100.00
48041;BME280;33815;48.386;11.738;2024-02-23T06:59:02;94901.53;;;3.07;100.00
48041;BME280;33815;48.386;11.738;2024-02-23T07:01:28;94898.88;;;3.17;100.00
48041;BME280;33815;48.386;11.738;2024-02-23T07:03:53;94905.22;;;3.23;100.00
48041;BME280;33815;48.386;11.738;2024-02-23T07:06:19;94900.47;;;3.18;100.00
48041;BME280;33815;48.386;11.738;2024-02-23T07:08:44;94895.06;;;3.21;100.00
48041;BME280;33815;48.386;11.738;2024-02-23T07:11:11;94899.47;;;3.29;100.00
48041;BME280;33815;48.386;11.738;2024-02-23T07:13:36;94887.84;;;3.25;100.00
48041;BME280;33815;48.386;11.738;2024-02-23T07:16:01;94894.75;;;3.24;100.00
48041;BME280;33815;48.386;11.738;2024-02-23T07:18:27;94896.38;;;3.25;100.00
48041;BME280;33815;48.386;11.738;2024-02-23T07:20:52;94900.66;;;3.35;100.00
48041;BME280;33815;48.386;11.738;2024-02-23T07:23:17;94910.88;;;3.45;100.00
48041;BME280;33815;48.386;11.738;2024-02-23T07:25:42;94912.72;;;3.52;100.00
48041;BME280;33815;48.386;11.738;2024-02-23T07:28:08;94911.91;;;3.52;100.00
48041;BME280;33815;48.386;11.738;2024-02-23T07:30:33;94912.28;;;3.57;100.00
48041;BME280;33815;48.386;11.738;2024-02-23T07:33:00;94907.81;;;3.41;100.00
48041;BME280;33815;48.386;11.738;2024-02-23T07:35:25;94915.00;;;3.55;100.00
48041;BME280;33815;48.386;11.738;2024-02-23T07:37:50;94915.38;;;3.42;100.00
48041;BME280;33815;48.386;11.738;2024-02-23T07:40:16;94943.34;;;3.55;100.00
48041;BME280;33815;48.386;11.738;2024-02-23T07:42:41;94930.06;;;3.50;100.00
48041;BME280;33815;48.386;11.738;2024-02-23T07:45:07;94934.06;;;3.45;100.00
48041;BME280;33815;48.386;11.738;2024-02-23T07:47:32;94936.19;;;3.49;100.00
48041;BME280;33815;48.386;11.738;2024-02-23T07:49:58;94940.09;;;3.53;100.00
48041;BME280;33815;48.386;11.738;2024-02-23T07:52:23;94943.03;;;3.58;100.00
48041;BME280;33815;48.386;11.738;2024-02-23T07:54:49;94941.47;;;3.66;100.00
48041;BME280;33815;48.386;11.738;2024-02-23T07:57:16;94937.44;;;3.63;100.00
48041;BME280;33815;48.386;11.738;2024-02-23T07:59:42;94934.34;;;3.59;100.00
48041;BME280;33815;48.386;11.738;2024-02-23T08:02:07;94921.19;;;3.63;100.00
48041;BME280;33815;48.386;11.738;2024-02-23T08:04:32;94932.19;;;3.73;100.00
48041;BME280;33815;48.386;11.738;2024-02-23T08:06:58;94910.13;;;3.70;100.00
48041;BME280;33815;48.386;11.738;2024-02-23T08:09:23;94928.28;;;3.87;100.00
48041;BME280;33815;48.386;11.738;2024-02-23T08:11:49;94904.69;;;3.73;100.00
48041;BME280;33815;48.386;11.738;2024-02-23T08:14:14;94916.28;;;3.96;100.00
48041;BME280;33815;48.386;11.738;2024-02-23T08:16:40;94913.75;;;4.04;100.00
48041;BME280;33815;48.386;11.738;2024-02-23T08:19:05;94906.75;;;4.14;100.00
48041;BME280;33815;48.386;11.738;2024-02-23T08:21:30;94881.53;;;4.08;100.00
48041;BME280;33815;48.386;11.738;2024-02-23T08:23:56;94901.91;;;4.19;100.00
48041;BME280;33815;48.386;11.738;2024-02-23T08:26:22;94891.00;;;4.25;100.00
48041;BME280;33815;48.386;11.738;2024-02-23T08:28:47;94881.03;;;4.31;100.00
48041;BME280;33815;48.386;11.738;2024-02-23T08:31:12;94913.91;;;4.55;100.00
48041;BME280;33815;48.386;11.738;2024-02-23T08:33:37;94912.16;;;4.63;100.00
48041;BME280;33815;48.386;11.738;2024-02-23T08:36:03;94898.63;;;4.61;100.00
48041;BME280;33815;48.386;11.738;2024-02-23T08:38:34;94886.81;;;4.59;100.00
48041;BME280;33815;48.386;11.738;2024-02-23T08:40:59;94883.78;;;4.63;100.00
48041;BME280;33815;48.386;11.738;2024-02-23T08:43:24;94884.13;;;4.69;100.00
48041;BME280;33815;48.386;11.738;2024-02-23T08:45:50;94892.56;;;4.87;100.00
48041;BME280;33815;48.386;11.738;2024-02-23T08:48:15;94901.00;;;5.06;100.00
48041;BME280;33815;48.386;11.738;2024-02-23T08:50:40;94892.31;;;5.07;100.00
48041;BME280;33815;48.386;11.738;2024-02-23T08:53:06;94907.47;;;5.10;100.00
48041;BME280;33815;48.386;11.738;2024-02-23T08:55:31;94910.22;;;5.08;100.00
48041;BME280;33815;48.386;11.738;2024-02-23T08:57:58;94914.16;;;5.29;100.00
48041;BME280;33815;48.386;11.738;2024-02-23T09:00:23;94904.94;;;5.26;100.00
48041;BME280;33815;48.386;11.738;2024-02-23T09:02:49;94914.59;;;5.24;100.00
48041;BME280;33815;48.386;11.738;2024-02-23T09:05:15;94921.72;;;5.22;100.00
48041;BME280;33815;48.386;11.738;2024-02-23T09:07:40;94938.78;;;5.07;100.00
48041;BME280;33815;48.386;11.738;2024-02-23T09:10:06;94960.13;;;5.17;100.00
48041;BME280;33815;48.386;11.738;2024-02-23T09:12:31;94967.50;;;5.12;100.00
48041;BME280;33815;48.386;11.738;2024-02-23T09:14:56;94941.78;;;4.86;100.00
48041;BME280;33815;48.386;11.738;2024-02-23T09:17:22;94955.25;;;5.06;100.00
48041;BME280;33815;48.386;11.738;2024-02-23T09:19:48;94964.34;;;5.26;100.00
48041;BME280;33815;48.386;11.738;2024-02-23T09:22:14;94952.59;;;4.89;100.00
48041;BME280;33815;48.386;11.738;2024-02-23T09:24:39;94966.28;;;4.82;100.00
48041;BME280;33815;48.386;11.738;2024-02-23T09:27:05;94988.13;;;4.95;100.00
48041;BME280;33815;48.386;11.738;2024-02-23T09:29:31;94995.16;;;4.85;100.00
48041;BME280;33815;48.386;11.738;2024-02-23T09:31:57;94998.56;;;4.86;100.00
48041;BME280;33815;48.386;11.738;2024-02-23T09:34:22;94993.28;;;4.95;100.00
48041;BME280;33815;48.386;11.738;2024-02-23T09:36:47;95002.06;;;4.76;100.00
48041;BME280;33815;48.386;11.738;2024-02-23T09:39:13;94991.25;;;4.81;100.00
48041;BME280;33815;48.386;11.738;2024-02-23T09:41:39;94995.94;;;4.77;100.00
48041;BME280;33815;48.386;11.738;2024-02-23T09:44:04;94988.34;;;4.76;100.00
48041;BME280;33815;48.386;11.738;2024-02-23T09:46:32;94996.50;;;4.63;100.00
48041;BME280;33815;48.386;11.738;2024-02-23T09:48:58;94993.81;;;4.73;100.00
48041;BME280;33815;48.386;11.738;2024-02-23T09:51:25;94995.09;;;4.69;100.00
48041;BME280;33815;48.386;11.738;2024-02-23T09:53:51;94982.28;;;4.59;100.00
48041;BME280;33815;48.386;11.738;2024-02-23T09:56:17;94991.34;;;4.63;100.00
48041;BME280;33815;48.386;11.738;2024-02-23T09:58:43;94995.25;;;4.75;100.00
48041;BME280;33815;48.386;11.738;2024-02-23T10:01:10;94985.00;;;4.84;100.00
48041;BME280;33815;48.386;11.738;2024-02-23T10:03:37;94987.41;;;4.85;100.00
48041;BME280;33815;48.386;11.738;2024-02-23T10:06:03;94985.31;;;4.80;100.00
48041;BME280;33815;48.386;11.738;2024-02-23T10:08:30;94976.50;;;4.91;100.00
48041;BME280;33815;48.386;11.738;2024-02-23T10:10:55;94982.13;;;4.95;100.00
48041;BME280;33815;48.386;11.738;2024-02-23T10:13:22;94982.66;;;4.98;100.00
48041;BME280;33815;48.386;11.738;2024-02-23T10:15:51;94975.06;;;4.97;100.00
48041;BME280;33815;48.386;11.738;2024-02-23T10:18:17;94993.34;;;5.12;100.00
48041;BME280;33815;48.386;11.738;2024-02-23T10:20:43;94984.59;;;5.05;100.00
48041;BME280;33815;48.386;11.738;2024-02-23T10:23:08;94992.72;;;5.18;100.00
48041;BME280;33815;48.386;11.738;2024-02-23T10:25:35;94994.44;;;5.52;100.00
48041;BME280;33815;48.386;11.738;2024-02-23T10:28:04;94981.69;;;5.51;100.00
48041;BME280;33815;48.386;11.738;2024-02-23T10:30:30;94975.50;;;5.35;100.00
48041;BME280;33815;48.386;11.738;2024-02-23T10:32:57;94982.47;;;5.35;100.00
48041;BME280;33815;48.386;11.738;2024-02-23T10:35:23;94969.38;;;5.36;100.00
48041;BME280;33815;48.386;11.738;2024-02-23T10:37:50;94981.31;;;5.37;100.00
48041;BME280;33815;48.386;11.738;2024-02-23T10:40:17;94959.22;;;5.43;100.00
48041;BME280;33815;48.386;11.738;2024-02-23T10:42:44;94969.75;;;5.58;100.00
48041;BME280;33815;48.386;11.738;2024-02-23T10:45:16;94960.16;;;5.34;100.00
48041;BME280;33815;48.386;11.738;2024-02-23T10:47:41;94968.97;;;5.65;100.00
48041;BME280;33815;48.386;11.738;2024-02-23T10:50:07;94971.16;;;5.44;100.00
48041;BME280;33815;48.386;11.738;2024-02-23T10:52:33;94958.28;;;5.52;100.00
48041;BME280;33815;48.386;11.738;2024-02-23T10:55:00;94968.97;;;5.65;98.15
48041;BME280;33815;48.386;11.738;2024-02-23T10:57:27;94969.13;;;5.80;95.27
48041;BME280;33815;48.386;11.738;2024-02-23T10:59:52;94971.69;;;5.72;92.91
48041;BME280;33815;48.386;11.738;2024-02-23T11:02:19;94981.91;;;5.74;91.96
48041;BME280;33815;48.386;11.738;2024-02-23T11:04:47;94969.28;;;5.54;96.14
48041;BME280;33815;48.386;11.738;2024-02-23T11:07:15;94968.59;;;5.52;94.89
48041;BME280;33815;48.386;11.738;2024-02-23T11:09:41;94961.34;;;5.47;93.50
48041;BME280;33815;48.386;11.738;2024-02-23T11:12:06;94943.56;;;5.44;94.14
48041;BME280;33815;48.386;11.738;2024-02-23T11:14:36;94963.47;;;5.69;93.66
48041;BME280;33815;48.386;11.738;2024-02-23T11:17:02;94970.59;;;5.83;91.87
48041;BME280;33815;48.386;11.738;2024-02-23T11:19:35;94963.94;;;5.72;92.83
48041;BME280;33815;48.386;11.738;2024-02-23T11:22:02;94971.22;;;5.60;90.63
48041;BME280;33815;48.386;11.738;2024-02-23T11:24:29;94964.91;;;5.55;91.71
48041;BME280;33815;48.386;11.738;2024-02-23T11:27:01;94960.22;;;5.75;89.46
48041;BME280;33815;48.386;11.738;2024-02-23T11:29:33;94964.59;;;5.66;87.29
48041;BME280;33815;48.386;11.738;2024-02-23T11:32:00;94963.44;;;5.60;89.00
48041;BME280;33815;48.386;11.738;2024-02-23T11:34:27;94964.44;;;5.76;89.25
48041;BME280;33815;48.386;11.738;2024-02-23T11:36:53;94950.69;;;5.59;86.22
48041;BME280;33815;48.386;11.738;2024-02-23T11:39:19;94970.09;;;5.71;83.70
48041;BME280;33815;48.386;11.738;2024-02-23T11:41:48;94963.94;;;5.72;85.18
48041;BME280;33815;48.386;11.738;2024-02-23T11:44:14;94959.94;;;5.70;88.22
48041;BME280;33815;48.386;11.738;2024-02-23T11:46:42;94973.66;;;5.87;88.47
48041;BME280;33815;48.386;11.738;2024-02-23T11:49:07;94956.69;;;5.92;84.83
48041;BME280;33815;48.386;11.738;2024-02-23T11:51:33;94959.75;;;5.96;86.46
48041;BME280;33815;48.386;11.738;2024-02-23T11:53:58;94951.53;;;5.84;85.02
48041;BME280;33815;48.386;11.738;2024-02-23T11:56:25;94952.50;;;5.91;87.28
48041;BME280;33815;48.386;11.738;2024-02-23T11:58:51;94960.63;;;6.05;92.62
48041;BME280;33815;48.386;11.738;2024-02-23T12:01:16;94951.88;;;5.97;93.80
48041;BME280;33815;48.386;11.738;2024-02-23T12:03:41;94938.59;;;5.84;96.59
48041;BME280;33815;48.386;11.738;2024-02-23T12:06:10;94955.41;;;5.96;96.63
48041;BME280;33815;48.386;11.738;2024-02-23T12:08:35;94955.06;;;5.83;98.05
48041;BME280;33815;48.386;11.738;2024-02-23T12:11:08;94949.28;;;5.81;98.15
48041;BME280;33815;48.386;11.738;2024-02-23T12:13:37;94943.59;;;5.77;97.56
48041;BME280;33815;48.386;11.738;2024-02-23T12:16:03;94941.50;;;5.81;98.69
48041;BME280;33815;48.386;11.738;2024-02-23T12:18:29;94945.22;;;5.78;99.74
48041;BME280;33815;48.386;11.738;2024-02-23T12:21:09;94943.75;;;5.68;99.63
48041;BME280;33815;48.386;11.738;2024-02-23T12:26:03;94944.53;;;5.52;97.90
48041;BME280;33815;48.386;11.738;2024-02-23T12:28:29;94941.28;;;5.41;98.33
48041;BME280;33815;48.386;11.738;2024-02-23T12:31:01;94939.50;;;5.34;98.37
48041;BME280;33815;48.386;11.738;2024-02-23T12:33:28;94945.97;;;5.38;99.02
48041;BME280;33815;48.386;11.738;2024-02-23T12:35:55;94932.88;;;5.31;99.64
48041;BME280;33815;48.386;11.738;2024-02-23T12:38:21;94939.19;;;5.37;96.65
48041;BME280;33815;48.386;11.738;2024-02-23T12:40:47;94906.72;;;5.18;97.27
48041;BME280;33815;48.386;11.738;2024-02-23T12:43:12;94927.91;;;5.46;98.18
48041;BME280;33815;48.386;11.738;2024-02-23T12:45:37;94929.81;;;5.44;96.55
48041;BME280;33815;48.386;11.738;2024-02-23T12:48:03;94917.19;;;5.24;95.59